Time;durP1;ratioP1;P1;durP2;ratioP2;P2;SDS_P1;SDS_P2;PMS_P1;PMS_P2;Temp;Humidity;BMP_temperature;BMP_pressure;BME280_temperature;BME280_humidity;BME280_pressure;Samples;Min_cycle;Max_cycle;Signal;HPM_P1;HPM_P2
2021/01/18 00:02:01;;;;;;;;;;;;;;;-9.53;65.93;97514.98;1757070;81;25807;-79
2021/01/18 00:04:28;;;;;;;;;;;;;;;-9.48;65.97;97516.88;1756654;80;28493;-79
2021/01/18 00:06:55;;;;;;;;;;;;;;;-9.49;65.85;97520.42;1757106;81;25359;-79
2021/01/18 00:09:22;;;;;;;;;;;;;;;-9.48;65.85;97519.03;1757899;79;25695;-80
2021/01/18 00:11:49;;;;;;;;;;;;;;;-9.47;65.79;97510.73;1767053;81;25916;-80
2021/01/18 00:14:16;;;;;;;;;;;;;;;-9.54;65.43;97514.13;1767366;81;25887;-80
2021/01/18 00:16:43;;;;;;;;;;;;;;;-9.75;65.31;97517.09;1756351;81;27566;-80
2021/01/18 00:19:10;;;;;;;;;;;;;;;-9.84;65.40;97518.45;1767310;79;25744;-80
2021/01/18 00:21:37;;;;;;;;;;;;;;;-9.91;65.49;97510.13;1767308;81;25758;-80
2021/01/18 00:24:04;;;;;;;;;;;;;;;-9.93;65.55;97516.34;1767311;79;25827;-80
2021/01/18 00:26:31;;;;;;;;;;;;;;;-9.98;65.57;97510.05;1767333;81;25803;-80
2021/01/18 00:28:58;;;;;;;;;;;;;;;-10.10;65.43;97514.63;1766974;81;27743;-80
2021/01/18 00:31:25;;;;;;;;;;;;;;;-10.20;65.46;97513.02;1767224;81;25737;-80
2021/01/18 00:33:53;;;;;;;;;;;;;;;-10.22;65.58;97510.94;1766934;79;36077;-80
2021/01/18 00:36:20;;;;;;;;;;;;;;;-10.24;65.27;97518.47;1767134;81;25855;-79
2021/01/18 00:38:47;;;;;;;;;;;;;;;-10.37;65.09;97516.13;1767131;81;25800;-80
2021/01/18 00:41:14;;;;;;;;;;;;;;;-10.50;65.05;97525.54;1767057;81;27486;-80
2021/01/18 00:43:40;;;;;;;;;;;;;;;-10.62;65.04;97530.44;1764404;80;26326;-80
2021/01/18 00:46:07;;;;;;;;;;;;;;;-10.67;64.89;97532.92;1757397;81;26217;-80
2021/01/18 00:48:34;;;;;;;;;;;;;;;-10.80;64.81;97531.39;1753669;80;26776;-79
2021/01/18 00:51:01;;;;;;;;;;;;;;;-10.95;64.78;97541.28;1735511;80;25870;-79
2021/01/18 00:53:28;;;;;;;;;;;;;;;-11.09;64.82;97545.88;1760399;80;27480;-80
2021/01/18 00:55:55;;;;;;;;;;;;;;;-11.17;64.96;97540.66;1749780;80;26185;-80
2021/01/18 00:58:22;;;;;;;;;;;;;;;-11.23;64.88;97544.43;1774038;79;25306;-79
2021/01/18 01:00:49;;;;;;;;;;;;;;;-11.27;64.88;97546.79;1757062;80;25808;-79
2021/01/18 01:03:16;;;;;;;;;;;;;;;-11.32;64.65;97539.64;1736791;79;25684;-80
2021/01/18 01:05:43;;;;;;;;;;;;;;;-11.42;64.67;97539.25;1735017;79;28486;-80
2021/01/18 01:08:10;;;;;;;;;;;;;;;-11.55;64.33;97535.54;1758909;79;26092;-80
2021/01/18 01:10:37;;;;;;;;;;;;;;;-11.62;64.44;97532.86;1768675;80;25292;-80
2021/01/18 01:13:09;;;;;;;;;;;;;;;-11.72;64.31;97541.56;1770927;80;25832;-79
2021/01/18 01:15:37;;;;;;;;;;;;;;;-11.86;64.18;97544.45;1772341;79;25752;-80
2021/01/18 01:18:04;;;;;;;;;;;;;;;-11.97;64.30;97556.66;1766432;80;27536;-79
2021/01/18 01:20:31;;;;;;;;;;;;;;;-12.07;64.23;97552.31;1760192;80;25743;-79
2021/01/18 01:22:58;;;;;;;;;;;;;;;-12.20;64.25;97548.60;1747797;80;25786;-79
2021/01/18 01:25:26;;;;;;;;;;;;;;;-12.32;64.37;97547.84;1778853;80;25902;-79
2021/01/18 01:27:54;;;;;;;;;;;;;;;-12.35;64.38;97552.33;1779017;80;25802;-80
2021/01/18 01:30:23;;;;;;;;;;;;;;;-12.40;64.60;97552.52;1779011;80;28336;-79
2021/01/18 01:32:51;;;;;;;;;;;;;;;-12.48;64.27;97558.08;1747818;80;25725;-80
2021/01/18 01:35:21;;;;;;;;;;;;;;;-12.62;64.35;97565.62;1779082;80;25762;-80
2021/01/18 01:37:48;;;;;;;;;;;;;;;-12.66;64.39;97559.31;1778906;80;25834;-80
2021/01/18 01:40:17;;;;;;;;;;;;;;;-12.69;64.36;97555.56;1778932;80;25683;-80
2021/01/18 01:42:44;;;;;;;;;;;;;;;-12.73;64.42;97557.89;1778810;80;27493;-79
2021/01/18 01:45:13;;;;;;;;;;;;;;;-12.86;64.13;97559.72;1778873;80;25755;-79
2021/01/18 01:47:50;;;;;;;;;;;;;;;-13.00;63.97;97547.75;1781034;80;25735;-80
2021/01/18 01:50:19;;;;;;;;;;;;;;;-13.12;63.65;97548.27;1782257;80;26760;-79
2021/01/18 01:52:49;;;;;;;;;;;;;;;-13.26;63.69;97557.11;1782408;80;25659;-80
2021/01/18 01:55:31;;;;;;;;;;;;;;;-13.36;63.65;97557.09;1779761;80;27494;-79
2021/01/18 01:58:00;;;;;;;;;;;;;;;-13.46;63.52;97563.12;1764404;80;25891;-80
2021/01/18 02:00:37;;;;;;;;;;;;;;;-13.57;63.45;97555.75;1780032;80;25593;-79
2021/01/18 02:03:09;;;;;;;;;;;;;;;-13.65;63.33;97556.52;1782251;80;25858;-80
2021/01/18 02:05:38;;;;;;;;;;;;;;;-13.69;63.30;97561.43;1782287;80;25866;-80
2021/01/18 02:08:07;;;;;;;;;;;;;;;-13.81;63.24;97561.06;1759499;80;27568;-80
2021/01/18 02:10:35;;;;;;;;;;;;;;;-13.94;63.11;97567.17;1774856;80;26191;-80
2021/01/18 02:13:09;;;;;;;;;;;;;;;-14.06;63.11;97565.04;1782343;80;25796;-80
2021/01/18 02:15:48;;;;;;;;;;;;;;;-14.10;63.29;97575.13;1780510;80;26834;-80
2021/01/18 02:18:37;;;;;;;;;;;;;;;-14.07;63.53;97567.23;1782337;79;25835;-80
2021/01/18 02:21:24;;;;;;;;;;;;;;;-14.00;63.59;97568.69;1781688;80;27520;-80
2021/01/18 02:24:14;;;;;;;;;;;;;;;-14.03;63.39;97562.34;1770460;80;25720;-80
2021/01/18 02:27:01;;;;;;;;;;;;;;;-14.11;63.23;97571.69;1765832;80;25826;-79
2021/01/18 02:29:51;;;;;;;;;;;;;;;-14.22;63.19;97572.08;1762281;80;26894;-80
2021/01/18 02:32:54;;;;;;;;;;;;;;;-14.23;63.45;97576.02;1770839;80;25703;-80
2021/01/18 02:35:42;;;;;;;;;;;;;;;-14.46;63.24;97571.71;1766455;80;28468;-80
2021/01/18 02:38:33;;;;;;;;;;;;;;;-14.61;63.27;97572.28;1777849;80;25807;-80
2021/01/18 02:41:21;;;;;;;;;;;;;;;-14.69;63.35;97574.28;1782277;79;26228;-80
2021/01/18 02:43:53;;;;;;;;;;;;;;;-14.72;63.20;97573.08;1782343;80;25826;-80
2021/01/18 02:46:21;;;;;;;;;;;;;;;-14.83;63.04;97568.72;1769736;80;25811;-80
2021/01/18 02:48:49;;;;;;;;;;;;;;;-14.87;63.02;97572.34;1782144;80;28434;-80
2021/01/18 02:51:18;;;;;;;;;;;;;;;-14.93;63.18;97572.53;1781989;80;25731;-80
2021/01/18 02:53:59;;;;;;;;;;;;;;;-14.96;63.14;97573.03;1782234;80;26564;-80
2021/01/18 02:56:33;;;;;;;;;;;;;;;-14.98;63.25;97567.08;1780711;79;26009;-80
2021/01/18 02:59:02;;;;;;;;;;;;;;;-15.01;62.94;97574.10;1753266;80;25826;-80
2021/01/18 03:01:41;;;;;;;;;;;;;;;-15.16;62.84;97572.86;1770863;80;27684;-80
2021/01/18 03:04:11;;;;;;;;;;;;;;;-15.24;62.86;97572.73;1781502;79;26006;-80
2021/01/18 03:06:47;;;;;;;;;;;;;;;-15.31;62.66;97579.39;1768086;80;25787;-80
2021/01/18 03:09:19;;;;;;;;;;;;;;;-15.38;62.58;97574.47;1772197;80;26805;-80
2021/01/18 03:11:49;;;;;;;;;;;;;;;-15.48;62.58;97575.67;1782180;80;25688;-80
2021/01/18 03:14:24;;;;;;;;;;;;;;;-15.54;62.57;97575.88;1782197;80;27555;-80
2021/01/18 03:16:52;;;;;;;;;;;;;;;-15.60;62.67;97576.94;1776516;80;26430;-80
2021/01/18 03:19:21;;;;;;;;;;;;;;;-15.61;62.75;97580.86;1774926;80;25773;-80
2021/01/18 03:21:49;;;;;;;;;;;;;;;-15.67;62.66;97583.18;1782054;80;25893;-80
2021/01/18 03:24:23;;;;;;;;;;;;;;;-15.70;62.75;97577.69;1782250;80;25884;-80
2021/01/18 03:26:50;;;;;;;;;;;;;;;-15.75;62.73;97580.84;1773574;80;27485;-80
2021/01/18 03:29:17;;;;;;;;;;;;;;;-15.81;62.62;97581.02;1747321;80;25701;-80
2021/01/18 03:31:44;;;;;;;;;;;;;;;-15.90;62.61;97577.87;1782174;80;26326;-80
2021/01/18 03:34:11;;;;;;;;;;;;;;;-15.95;62.59;97571.56;1782085;80;25816;-80
2021/01/18 03:36:38;;;;;;;;;;;;;;;-15.95;62.53;97575.45;1782201;80;25812;-80
2021/01/18 03:39:05;;;;;;;;;;;;;;;-15.98;62.58;97572.94;1782223;80;27492;-80
2021/01/18 03:41:32;;;;;;;;;;;;;;;-16.02;62.60;97575.21;1782126;80;25847;-80
2021/01/18 03:43:59;;;;;;;;;;;;;;;-16.07;62.37;97577.95;1782029;80;25862;-80
2021/01/18 03:46:26;;;;;;;;;;;;;;;-16.12;62.42;97576.38;1755626;80;26086;-80
2021/01/18 03:48:52;;;;;;;;;;;;;;;-16.09;62.66;97578.44;1753103;80;25763;-80
2021/01/18 03:51:19;;;;;;;;;;;;;;;-16.05;62.65;97576.59;1773589;80;27427;-81
2021/01/18 03:53:46;;;;;;;;;;;;;;;-15.97;62.82;97579.81;1748630;80;26392;-81
2021/01/18 03:56:13;;;;;;;;;;;;;;;-15.95;62.76;97575.89;1776444;80;25800;-81
2021/01/18 03:58:40;;;;;;;;;;;;;;;-16.03;62.81;97574.81;1776260;80;25822;-81
2021/01/18 04:01:07;;;;;;;;;;;;;;;-16.07;62.56;97575.37;1750040;80;25400;-80
2021/01/18 04:03:34;;;;;;;;;;;;;;;-16.18;62.42;97576.58;1772096;80;27491;-80
2021/01/18 04:06:01;;;;;;;;;;;;;;;-16.25;62.35;97577.19;1776271;80;25672;-80
2021/01/18 04:08:28;;;;;;;;;;;;;;;-16.33;62.36;97575.72;1744292;80;26465;-81
2021/01/18 04:10:55;;;;;;;;;;;;;;;-16.34;62.51;97584.36;1772193;80;25828;-80
2021/01/18 04:13:22;;;;;;;;;;;;;;;-16.41;62.37;97590.13;1743715;80;26017;-80
2021/01/18 04:15:49;;;;;;;;;;;;;;;-16.50;62.31;97583.50;1738779;80;27703;-80
2021/01/18 04:18:16;;;;;;;;;;;;;;;-16.57;62.41;97581.98;1776158;80;25747;-81
2021/01/18 04:20:43;;;;;;;;;;;;;;;-16.58;62.52;97581.58;1776303;80;25835;-81
2021/01/18 04:23:10;;;;;;;;;;;;;;;-16.56;62.61;97578.96;1776251;80;25908;-80
2021/01/18 04:25:37;;;;;;;;;;;;;;;-16.57;62.65;97583.72;1776426;80;25691;-80
2021/01/18 04:28:05;;;;;;;;;;;;;;;-16.57;62.71;97581.98;1776356;80;27498;-81
2021/01/18 04:30:35;;;;;;;;;;;;;;;-16.62;62.58;97573.54;1749373;80;26175;-80
2021/01/18 04:33:04;;;;;;;;;;;;;;;-16.61;62.69;97570.48;1763131;80;25671;-81
2021/01/18 04:35:34;;;;;;;;;;;;;;;-16.64;62.66;97570.59;1756811;80;26359;-81
2021/01/18 04:38:01;;;;;;;;;;;;;;;-16.65;62.64;97572.33;1771018;79;25736;-80
2021/01/18 04:40:30;;;;;;;;;;;;;;;-16.79;62.56;97569.30;1776147;80;27294;-81
2021/01/18 04:42:57;;;;;;;;;;;;;;;-16.86;62.74;97567.75;1771114;80;26285;-80
2021/01/18 04:45:27;;;;;;;;;;;;;;;-16.84;62.72;97564.25;1751239;80;25775;-81
2021/01/18 04:47:56;;;;;;;;;;;;;;;-16.86;62.61;97564.72;1778073;80;26034;-80
2021/01/18 04:50:25;;;;;;;;;;;;;;;-16.86;62.67;97570.33;1765671;80;26150;-80
2021/01/18 04:52:54;;;;;;;;;;;;;;;-16.90;62.47;97561.00;1756364;80;27697;-81
2021/01/18 04:55:30;;;;;;;;;;;;;;;-16.95;62.50;97556.39;1760957;80;26691;-80
2021/01/18 04:58:15;;;;;;;;;;;;;;;-16.93;62.52;97554.62;1769856;80;25711;-81
2021/01/18 05:00:44;;;;;;;;;;;;;;;-16.94;62.49;97555.50;1764324;80;26850;-80
2021/01/18 05:03:13;;;;;;;;;;;;;;;-16.98;62.47;97557.75;1781522;80;26248;-79
2021/01/18 05:06:02;;;;;;;;;;;;;;;-16.97;62.74;97559.45;1767352;80;28453;-80
2021/01/18 05:09:05;;;;;;;;;;;;;;;-16.93;62.83;97555.91;1775114;80;26109;-82
2021/01/18 05:11:33;;;;;;;;;;;;;;;-16.91;62.73;97559.30;1766847;80;25782;-81
2021/01/18 05:14:02;;;;;;;;;;;;;;;-16.98;62.64;97565.50;1782299;80;26790;-82
2021/01/18 05:16:32;;;;;;;;;;;;;;;-17.05;62.61;97568.70;1773672;80;25703;-81
2021/01/18 05:19:02;;;;;;;;;;;;;;;-17.12;62.52;97576.18;1751134;80;28711;-81
2021/01/18 05:21:28;;;;;;;;;;;;;;;-17.13;62.66;97572.34;1781810;80;26368;-81
2021/01/18 05:23:55;;;;;;;;;;;;;;;-17.13;62.69;97574.92;1782162;80;26460;-81
2021/01/18 05:26:25;;;;;;;;;;;;;;;-17.14;62.71;97574.55;1782186;80;25779;-81
2021/01/18 05:28:55;;;;;;;;;;;;;;;-17.16;62.66;97578.02;1754396;80;25809;-82
2021/01/18 05:31:31;;;;;;;;;;;;;;;-17.16;62.75;97583.17;1749095;80;27573;-81
2021/01/18 05:33:59;;;;;;;;;;;;;;;-17.16;62.59;97583.17;1771258;80;26103;-81
2021/01/18 05:36:44;;;;;;;;;;;;;;;-17.18;62.55;97586.23;1776867;80;25693;-81
2021/01/18 05:39:17;;;;;;;;;;;;;;;-17.22;62.46;97582.02;1776434;80;26807;-81
2021/01/18 05:41:47;;;;;;;;;;;;;;;-17.26;62.42;97573.95;1761157;80;25564;-81
2021/01/18 05:44:14;;;;;;;;;;;;;;;-17.28;62.42;97580.91;1782022;80;27498;-82
2021/01/18 05:46:46;;;;;;;;;;;;;;;-17.27;62.59;97589.05;1782156;80;25321;-81
2021/01/18 05:49:19;;;;;;;;;;;;;;;-17.25;62.70;97588.98;1782100;79;25675;-81
2021/01/18 05:51:53;;;;;;;;;;;;;;;-17.29;62.71;97588.23;1781855;80;25816;-81
2021/01/18 05:54:24;;;;;;;;;;;;;;;-17.31;62.80;97599.04;1782213;80;25805;-81
2021/01/18 05:56:56;;;;;;;;;;;;;;;-17.29;62.76;97603.72;1782192;80;27756;-81
2021/01/18 05:59:24;;;;;;;;;;;;;;;-17.29;62.74;97599.85;1782169;80;25654;-81
2021/01/18 06:01:53;;;;;;;;;;;;;;;-17.28;62.73;97604.12;1767625;80;25921;-80
2021/01/18 06:04:22;;;;;;;;;;;;;;;-17.33;62.67;97608.55;1777357;80;26745;-81
2021/01/18 06:06:59;;;;;;;;;;;;;;;-17.44;62.39;97611.83;1767289;80;25734;-80
2021/01/18 06:09:46;;;;;;;;;;;;;;;-17.48;62.39;97611.48;1764581;80;27652;-82
2021/01/18 06:12:23;;;;;;;;;;;;;;;-17.52;62.32;97609.44;1781461;80;25818;-81
2021/01/18 06:15:08;;;;;;;;;;;;;;;-17.66;62.22;97611.52;1770855;80;25662;-81
2021/01/18 06:17:38;;;;;;;;;;;;;;;-17.67;62.37;97612.41;1778489;80;26414;-81
2021/01/18 06:20:06;;;;;;;;;;;;;;;-17.69;62.32;97604.29;1781392;80;25731;-81
2021/01/18 06:22:33;;;;;;;;;;;;;;;-17.72;62.28;97601.34;1751066;80;28694;-82
2021/01/18 06:25:14;;;;;;;;;;;;;;;-17.74;62.35;97600.95;1782172;80;25712;-81
2021/01/18 06:27:42;;;;;;;;;;;;;;;-17.78;62.28;97608.37;1782154;80;25691;-82
2021/01/18 06:30:27;;;;;;;;;;;;;;;-17.93;62.16;97612.99;1769523;80;25889;-81
2021/01/18 06:32:56;;;;;;;;;;;;;;;-18.03;62.29;97617.09;1761209;80;25733;-82
2021/01/18 06:35:26;;;;;;;;;;;;;;;-18.06;62.43;97612.85;1768260;80;27485;-81
2021/01/18 06:38:02;;;;;;;;;;;;;;;-18.04;62.59;97613.67;1781890;80;25788;-81
2021/01/18 06:40:35;;;;;;;;;;;;;;;-17.99;62.55;97601.52;1779341;80;25764;-81
2021/01/18 06:43:04;;;;;;;;;;;;;;;-17.97;62.57;97607.48;1781784;80;25767;-80
2021/01/18 06:45:39;;;;;;;;;;;;;;;-17.95;62.55;97615.19;1761322;80;25345;-81
2021/01/18 06:48:10;;;;;;;;;;;;;;;-17.96;62.50;97611.77;1768152;80;28709;-81
2021/01/18 06:50:39;;;;;;;;;;;;;;;-17.99;62.36;97613.11;1753118;80;25674;-80
2021/01/18 06:53:25;;;;;;;;;;;;;;;-18.02;62.27;97615.78;1745258;80;25762;-80
2021/01/18 06:56:13;;;;;;;;;;;;;;;-18.05;62.25;97610.69;1776450;80;25836;-80
2021/01/18 06:59:03;;;;;;;;;;;;;;;-18.09;62.16;97614.64;1732489;80;25783;-81
2021/01/18 07:01:34;;;;;;;;;;;;;;;-18.12;62.24;97614.28;1747415;79;27533;-81
2021/01/18 07:04:10;;;;;;;;;;;;;;;-18.09;62.43;97618.50;1762162;80;25773;-81
2021/01/18 07:06:39;;;;;;;;;;;;;;;-18.08;62.50;97615.89;1760758;80;25876;-81
2021/01/18 07:09:19;;;;;;;;;;;;;;;-18.01;62.69;97613.61;1761313;80;25831;-81
2021/01/18 07:11:46;;;;;;;;;;;;;;;-17.97;62.85;97625.53;1761428;80;25820;-81
2021/01/18 07:14:14;;;;;;;;;;;;;;;-17.94;62.75;97625.47;1761385;80;27705;-81
2021/01/18 07:16:42;;;;;;;;;;;;;;;-17.98;62.56;97624.27;1769007;80;25730;-81
2021/01/18 07:19:09;;;;;;;;;;;;;;;-18.02;62.56;97622.22;1776368;80;26505;-82
2021/01/18 07:21:49;;;;;;;;;;;;;;;-17.99;62.54;97625.18;1776443;80;25831;-81
2021/01/18 07:24:16;;;;;;;;;;;;;;;-17.97;62.60;97621.66;1745219;80;26074;-81
2021/01/18 07:26:53;;;;;;;;;;;;;;;-17.92;62.53;97625.00;1776396;80;27563;-81
2021/01/18 07:29:22;;;;;;;;;;;;;;;-17.89;62.66;97626.67;1771294;80;26309;-82
2021/01/18 07:31:52;;;;;;;;;;;;;;;-17.83;62.81;97628.25;1732226;80;25918;-82
2021/01/18 07:34:21;;;;;;;;;;;;;;;-17.79;62.71;97628.59;1734835;80;25865;-82
2021/01/18 07:36:49;;;;;;;;;;;;;;;-17.79;62.73;97635.04;1776539;79;25737;-81
2021/01/18 07:39:38;;;;;;;;;;;;;;;-17.78;62.66;97629.00;1776385;80;27698;-81
2021/01/18 07:42:06;;;;;;;;;;;;;;;-17.78;62.75;97640.17;1759710;80;26001;-82
2021/01/18 07:44:44;;;;;;;;;;;;;;;-17.70;62.88;97634.39;1776273;80;25919;-81
2021/01/18 07:47:13;;;;;;;;;;;;;;;-17.68;62.86;97642.94;1756257;80;25863;-80
2021/01/18 07:49:42;;;;;;;;;;;;;;;-17.59;62.93;97631.52;1766344;80;25823;-81
2021/01/18 07:52:15;;;;;;;;;;;;;;;-17.52;63.01;97636.97;1772023;80;27547;-81
2021/01/18 07:54:42;;;;;;;;;;;;;;;-17.45;63.12;97642.38;1776308;80;26145;-81
2021/01/18 07:57:30;;;;;;;;;;;;;;;-17.39;63.14;97640.95;1776451;80;26285;-81
2021/01/18 08:00:22;;;;;;;;;;;;;;;-17.32;63.25;97642.50;1776341;80;26072;-81
2021/01/18 08:02:52;;;;;;;;;;;;;;;-17.22;63.32;97636.22;1760963;79;25794;-81
2021/01/18 08:05:29;;;;;;;;;;;;;;;-17.09;63.44;97635.48;1748613;80;27485;-81
2021/01/18 08:08:08;;;;;;;;;;;;;;;-16.98;63.41;97640.37;1739644;80;25805;-82
2021/01/18 08:11:02;;;;;;;;;;;;;;;-16.89;63.52;97638.83;1743130;80;25704;-82
2021/01/18 08:13:38;;;;;;;;;;;;;;;-16.82;63.51;97633.93;1752263;80;26989;-82
2021/01/18 08:16:13;;;;;;;;;;;;;;;-16.73;63.53;97631.10;1773219;80;25803;-81
2021/01/18 08:19:02;;;;;;;;;;;;;;;-16.63;63.54;97629.97;1753057;80;28648;-81
2021/01/18 08:21:41;;;;;;;;;;;;;;;-16.53;63.58;97626.20;1740367;80;25764;-81
2021/01/18 08:24:11;;;;;;;;;;;;;;;-16.42;63.55;97632.40;1766389;80;25832;-81
2021/01/18 08:26:56;;;;;;;;;;;;;;;-16.36;63.55;97630.08;1776435;80;25885;-81
2021/01/18 08:29:35;;;;;;;;;;;;;;;-16.25;63.56;97634.05;1771159;80;25719;-81
2021/01/18 08:32:30;;;;;;;;;;;;;;;-16.19;63.61;97635.19;1776344;80;27591;-81
2021/01/18 08:34:56;;;;;;;;;;;;;;;-16.16;63.65;97634.23;1775675;80;25833;-80
2021/01/18 08:37:25;;;;;;;;;;;;;;;-16.08;63.73;97631.00;1748608;80;25822;-81
2021/01/18 08:39:58;;;;;;;;;;;;;;;-15.98;63.78;97628.54;1774062;80;27005;-81
2021/01/18 08:42:36;;;;;;;;;;;;;;;-15.84;63.78;97636.75;1776429;80;25787;-81
2021/01/18 08:45:13;;;;;;;;;;;;;;;-15.80;63.70;97635.74;1745292;80;28365;-81
2021/01/18 08:47:42;;;;;;;;;;;;;;;-15.66;63.92;97633.19;1776247;80;25715;-81
2021/01/18 08:50:30;;;;;;;;;;;;;;;-15.44;64.17;97636.77;1756949;80;25760;-81
2021/01/18 08:53:03;;;;;;;;;;;;;;;-15.19;64.34;97633.80;1788242;80;25817;-82
2021/01/18 08:55:33;;;;;;;;;;;;;;;-15.10;63.88;97627.06;1788561;80;25803;-81
2021/01/18 08:58:02;;;;;;;;;;;;;;;-15.09;63.74;97633.09;1787408;80;27784;-81
2021/01/18 09:00:44;;;;;;;;;;;;;;;-15.00;63.77;97628.45;1788599;80;26261;-81
2021/01/18 09:03:14;;;;;;;;;;;;;;;-14.92;63.87;97633.36;1788460;80;25827;-81
2021/01/18 09:05:41;;;;;;;;;;;;;;;-14.65;64.19;97624.66;1762324;80;26245;-81
2021/01/18 09:08:08;;;;;;;;;;;;;;;-14.39;64.21;97626.32;1788449;80;25770;-81
2021/01/18 09:10:35;;;;;;;;;;;;;;;-14.14;64.24;97621.55;1788334;80;27763;-81
2021/01/18 09:13:05;;;;;;;;;;;;;;;-13.83;64.21;97620.80;1788404;80;25791;-81
2021/01/18 09:15:33;;;;;;;;;;;;;;;-13.55;64.01;97618.86;1787598;80;25756;-81
2021/01/18 09:18:10;;;;;;;;;;;;;;;-13.28;63.94;97610.89;1788084;80;26088;-82
2021/01/18 09:20:39;;;;;;;;;;;;;;;-13.04;63.89;97616.37;1777812;80;25718;-81
2021/01/18 09:23:08;;;;;;;;;;;;;;;-12.79;63.77;97607.92;1759025;80;27550;-81
2021/01/18 09:25:36;;;;;;;;;;;;;;;-12.62;63.56;97606.38;1756984;80;25746;-82
2021/01/18 09:28:15;;;;;;;;;;;;;;;-12.40;63.54;97604.55;1759831;79;25784;-82
2021/01/18 09:30:43;;;;;;;;;;;;;;;-12.23;63.25;97599.47;1772602;80;26064;-82
2021/01/18 09:33:12;;;;;;;;;;;;;;;-12.03;63.26;97594.20;1760268;79;25719;-82
2021/01/18 09:35:41;;;;;;;;;;;;;;;-11.79;63.14;97590.10;1775241;80;27561;-82
2021/01/18 09:38:10;;;;;;;;;;;;;;;-11.49;63.03;97579.55;1756794;80;25810;-80
2021/01/18 09:40:39;;;;;;;;;;;;;;;-11.22;62.85;97572.61;1757090;79;25815;-79
2021/01/18 09:43:08;;;;;;;;;;;;;;;-11.07;62.66;97574.02;1778110;80;25937;-80
2021/01/18 09:45:36;;;;;;;;;;;;;;;-10.83;62.53;97575.88;1757056;80;25762;-79
2021/01/18 09:48:06;;;;;;;;;;;;;;;-10.59;62.36;97572.48;1757187;80;28449;-80
2021/01/18 09:50:35;;;;;;;;;;;;;;;-10.45;62.08;97571.33;1758140;80;25766;-80
2021/01/18 09:53:08;;;;;;;;;;;;;;;-10.33;61.97;97564.64;1758058;79;25747;-80
2021/01/18 09:55:39;;;;;;;;;;;;;;;-10.15;62.00;97564.96;1758695;80;28447;-80
2021/01/18 09:58:15;;;;;;;;;;;;;;;-9.91;62.00;97561.52;1764180;79;25755;-79
2021/01/18 10:00:45;;;;;;;;;;;;;;;-9.58;62.06;97556.22;1770429;80;27468;-80
2021/01/18 10:03:12;;;;;;;;;;;;;;;-9.37;61.68;97551.10;1758629;80;25738;-80
2021/01/18 10:05:41;;;;;;;;;;;;;;;-9.17;61.47;97546.05;1729042;81;25778;-80
2021/01/18 10:08:14;;;;;;;;;;;;;;;-8.87;61.66;97540.84;1758733;80;26461;-79
2021/01/18 10:10:47;;;;;;;;;;;;;;;-8.56;61.42;97534.18;1758552;80;26254;-80
2021/01/18 10:13:20;;;;;;;;;;;;;;;-8.22;61.14;97538.23;1758557;80;28733;-80
2021/01/18 10:15:48;;;;;;;;;;;;;;;-7.90;60.91;97538.87;1762710;79;25760;-79
2021/01/18 10:18:39;;;;;;;;;;;;;;;-7.61;60.62;97530.52;1787346;78;25722;-79
2021/01/18 10:21:08;;;;;;;;;;;;;;;-7.34;60.22;97527.91;1761891;81;26702;-80
2021/01/18 10:23:38;;;;;;;;;;;;;;;-7.14;59.79;97518.30;1760384;80;25808;-81
2021/01/18 10:26:21;;;;;;;;;;;;;;;-7.18;58.95;97522.05;1766298;81;28463;-81
2021/01/18 10:29:00;;;;;;;;;;;;;;;-7.42;58.36;97518.38;1748884;81;25799;-81
2021/01/18 10:31:30;;;;;;;;;;;;;;;-7.48;58.71;97521.38;1757214;80;25767;-80
2021/01/18 10:34:15;;;;;;;;;;;;;;;-7.47;58.94;97520.45;1771786;79;27402;-81
2021/01/18 10:36:47;;;;;;;;;;;;;;;-7.24;59.15;97516.37;1772415;79;25745;-81
2021/01/18 10:39:33;;;;;;;;;;;;;;;-6.84;59.26;97518.05;1789433;79;27601;-80
2021/01/18 10:42:12;;;;;;;;;;;;;;;-6.58;58.98;97517.16;1784509;79;25723;-80
2021/01/18 10:44:54;;;;;;;;;;;;;;;-6.42;58.45;97526.17;1772690;79;26199;-80
2021/01/18 10:47:23;;;;;;;;;;;;;;;-6.40;57.94;97516.37;1775276;80;26043;-80
2021/01/18 10:49:58;;;;;;;;;;;;;;;-6.17;58.42;97517.93;1756783;80;25810;-80
2021/01/18 10:52:37;;;;;;;;;;;;;;;-5.86;58.54;97516.13;1774384;79;27506;-81
2021/01/18 10:55:07;;;;;;;;;;;;;;;-5.55;58.37;97514.31;1793793;79;25852;-80
2021/01/18 10:57:42;;;;;;;;;;;;;;;-5.33;58.00;97514.11;1787102;79;25734;-80
2021/01/18 11:00:13;;;;;;;;;;;;;;;-5.05;57.68;97513.77;1781045;79;27009;-80
2021/01/18 11:02:47;;;;;;;;;;;;;;;-4.78;57.54;97517.48;1775322;80;25798;-80
2021/01/18 11:05:16;;;;;;;;;;;;;;;-4.61;57.07;97523.66;1745558;80;27576;-80
2021/01/18 11:07:46;;;;;;;;;;;;;;;-4.59;56.18;97522.23;1764150;79;25887;-80
2021/01/18 11:10:13;;;;;;;;;;;;;;;-4.63;56.68;97514.19;1767317;79;26366;-81
2021/01/18 11:12:41;;;;;;;;;;;;;;;-4.53;55.82;97517.80;1741616;80;25845;-81
2021/01/18 11:15:12;;;;;;;;;;;;;;;-4.69;55.97;97508.05;1761503;80;25566;-80
2021/01/18 11:17:40;;;;;;;;;;;;;;;-4.55;55.59;97506.53;1774625;80;27684;-80
2021/01/18 11:20:08;;;;;;;;;;;;;;;-4.57;55.26;97508.44;1753405;80;25312;-81
2021/01/18 11:22:36;;;;;;;;;;;;;;;-4.59;55.55;97498.52;1769340;80;25798;-81
2021/01/18 11:25:03;;;;;;;;;;;;;;;-4.50;55.90;97501.77;1756604;80;26762;-81
2021/01/18 11:27:31;;;;;;;;;;;;;;;-4.40;54.86;97493.05;1766053;80;25686;-81
2021/01/18 11:29:58;;;;;;;;;;;;;;;-4.52;54.42;97486.55;1776527;80;27709;-81
2021/01/18 11:32:25;;;;;;;;;;;;;;;-4.68;54.50;97481.59;1776331;80;25313;-81
2021/01/18 11:34:52;;;;;;;;;;;;;;;-4.76;54.39;97482.66;1763460;80;25870;-82
2021/01/18 11:37:19;;;;;;;;;;;;;;;-4.80;54.44;97474.14;1758798;80;25823;-82
2021/01/18 11:39:47;;;;;;;;;;;;;;;-4.84;54.33;97471.39;1770373;79;25340;-81
2021/01/18 11:42:14;;;;;;;;;;;;;;;-4.83;54.85;97470.41;1763799;80;26859;-82
2021/01/18 11:44:41;;;;;;;;;;;;;;;-4.46;55.59;97467.16;1750328;80;25809;-82
2021/01/18 11:47:08;;;;;;;;;;;;;;;-4.03;55.83;97454.16;1743698;80;25794;-83
2021/01/18 11:49:35;;;;;;;;;;;;;;;-3.68;55.51;97442.13;1758753;80;26882;-83
2021/01/18 11:52:03;;;;;;;;;;;;;;;-3.39;55.43;97441.13;1755864;80;25828;-83
2021/01/18 11:54:30;;;;;;;;;;;;;;;-3.36;54.18;97431.61;1758978;80;27504;-83
2021/01/18 11:56:57;;;;;;;;;;;;;;;-3.28;54.53;97429.69;1772631;80;25804;-83
2021/01/18 11:59:24;;;;;;;;;;;;;;;-3.09;54.35;97438.25;1774621;80;25770;-83
2021/01/18 12:01:51;;;;;;;;;;;;;;;-2.96;54.13;97438.92;1777830;80;26778;-83
2021/01/18 12:04:18;;;;;;;;;;;;;;;-2.87;53.94;97427.58;1771529;79;25814;-84
2021/01/18 12:06:45;;;;;;;;;;;;;;;-2.65;54.04;97423.97;1774437;80;27391;-84
2021/01/18 12:09:13;;;;;;;;;;;;;;;-2.44;53.71;97423.50;1778537;80;26144;-84
2021/01/18 12:11:40;;;;;;;;;;;;;;;-2.36;53.32;97424.16;1770019;80;25882;-84
2021/01/18 12:14:09;;;;;;;;;;;;;;;-2.30;53.23;97423.66;1775006;80;26802;-84
2021/01/18 12:16:36;;;;;;;;;;;;;;;-2.30;53.25;97426.30;1773142;80;25770;-84
2021/01/18 12:19:03;;;;;;;;;;;;;;;-2.28;53.44;97420.37;1764705;80;27548;-84
2021/01/18 12:21:31;;;;;;;;;;;;;;;-2.18;53.52;97422.61;1778877;80;26228;-84
2021/01/18 12:23:58;;;;;;;;;;;;;;;-2.18;52.84;97423.92;1774077;79;25806;-84
2021/01/18 12:26:25;;;;;;;;;;;;;;;-2.20;52.80;97416.13;1775754;80;25888;-84
2021/01/18 12:28:52;;;;;;;;;;;;;;;-2.44;51.48;97415.58;1774008;79;26002;-84
2021/01/18 12:31:21;;;;;;;;;;;;;;;-2.75;52.12;97414.67;1758513;80;27721;-85
2021/01/18 12:33:48;;;;;;;;;;;;;;;-2.84;52.66;97418.09;1748404;80;25830;-85
2021/01/18 12:36:15;;;;;;;;;;;;;;;-2.70;52.89;97419.09;1748347;80;25324;-85
2021/01/18 12:38:42;;;;;;;;;;;;;;;-2.77;52.28;97425.84;1766596;80;25896;-85
2021/01/18 12:41:11;;;;;;;;;;;;;;;-2.67;52.72;97424.13;1751637;80;25811;-85
2021/01/18 12:43:38;;;;;;;;;;;;;;;-2.48;52.65;97422.56;1742473;80;28721;-86
2021/01/18 12:46:05;;;;;;;;;;;;;;;-2.37;52.42;97423.80;1756513;80;25785;-86
2021/01/18 12:48:33;;;;;;;;;;;;;;;-2.33;52.20;97421.27;1761939;80;25809;-87
2021/01/18 12:51:00;;;;;;;;;;;;;;;-2.42;51.68;97420.25;1758462;80;25830;-86
2021/01/18 12:53:43;;;;;;;;;;;;;;;-2.56;52.07;97421.42;1771483;80;26046;-86
2021/01/18 12:56:12;;;;;;;;;;;;;;;-2.38;52.22;97415.04;1761291;80;28441;-86
2021/01/18 12:58:39;;;;;;;;;;;;;;;-2.20;52.34;97413.95;1750648;80;26124;-86
2021/01/18 13:01:06;;;;;;;;;;;;;;;-2.26;51.60;97413.15;1751842;80;26539;-85
2021/01/18 13:03:33;;;;;;;;;;;;;;;-2.39;51.92;97413.84;1761307;80;25821;-85